Time;durP1;ratioP1;P1;durP2;ratioP2;P2;SDS_P1;SDS_P2;PMS_P1;PMS_P2;Temp;Humidity;BMP_temperature;BMP_pressure;BME280_temperature;BME280_humidity;BME280_pressure;Samples;Min_cycle;Max_cycle;Signal;HPM_P1;HPM_P2
2023/09/20 00:01:26;;;;;;;11.15;10.25;;;;;;;;;;4976360;28;20049;-72
2023/09/20 00:03:52;;;;;;;11.70;10.65;;;;;;;;;;4964557;28;20058;-72
2023/09/20 00:06:17;;;;;;;11.20;10.30;;;;;;;;;;4993271;28;20058;-72
2023/09/20 00:08:44;;;;;;;11.00;10.25;;;;;;;;;;4965992;28;20507;-73
2023/09/20 00:11:15;;;;;;;11.02;10.00;;;;;;;;;;4994593;28;20042;-71
2023/09/20 00:13:44;;;;;;;10.70;10.00;;;;;;;;;;4964861;28;20038;-71
2023/09/20 00:16:18;;;;;;;10.88;10.10;;;;;;;;;;4979576;28;20122;-73
2023/09/20 00:18:43;;;;;;;10.93;10.02;;;;;;;;;;4972526;28;20130;-73
2023/09/20 00:21:10;;;;;;;11.02;10.07;;;;;;;;;;4974076;28;20129;-74
2023/09/20 00:23:36;;;;;;;10.50;9.80;;;;;;;;;;4972467;28;20048;-73
2023/09/20 00:26:03;;;;;;;11.45;10.45;;;;;;;;;;4991832;28;20134;-71
2023/09/20 00:28:31;;;;;;;10.98;10.18;;;;;;;;;;4972724;28;20038;-70
2023/09/20 00:30:57;;;;;;;11.00;10.27;;;;;;;;;;4973171;28;20097;-69
2023/09/20 00:33:23;;;;;;;11.50;10.50;;;;;;;;;;4973215;28;20042;-72
2023/09/20 00:35:49;;;;;;;11.00;10.13;;;;;;;;;;4963423;28;20485;-71
2023/09/20 00:38:16;;;;;;;11.10;10.20;;;;;;;;;;4967377;28;20092;-71
2023/09/20 00:40:43;;;;;;;11.63;10.73;;;;;;;;;;4966594;28;20149;-74
2023/09/20 00:43:11;;;;;;;11.93;10.82;;;;;;;;;;4970538;28;20038;-72
2023/09/20 00:45:40;;;;;;;11.27;10.30;;;;;;;;;;4971027;28;20931;-73
2023/09/20 00:48:07;;;;;;;10.82;10.13;;;;;;;;;;4975812;28;20034;-71
2023/09/20 00:50:35;;;;;;;10.82;10.05;;;;;;;;;;4971829;28;20062;-72
2023/09/20 00:53:06;;;;;;;10.87;10.13;;;;;;;;;;4972306;28;20102;-73
2023/09/20 00:55:33;;;;;;;10.43;9.70;;;;;;;;;;4996867;28;20302;-72
2023/09/20 00:58:07;;;;;;;11.10;10.23;;;;;;;;;;4990140;28;20035;-73
2023/09/20 01:00:36;;;;;;;11.27;10.40;;;;;;;;;;4985972;28;20511;-71
2023/09/20 01:03:02;;;;;;;10.82;10.00;;;;;;;;;;4976979;28;20038;-74
2023/09/20 01:05:36;;;;;;;11.70;10.70;;;;;;;;;;4984182;28;20053;-72
2023/09/20 01:08:11;;;;;;;12.05;11.05;;;;;;;;;;4975150;28;20109;-72
2023/09/20 01:10:37;;;;;;;11.43;10.27;;;;;;;;;;4975457;28;20042;-73
2023/09/20 01:13:05;;;;;;;10.63;9.82;;;;;;;;;;5002218;28;20045;-73
2023/09/20 01:15:33;;;;;;;10.38;9.65;;;;;;;;;;4967441;28;20532;-72
2023/09/20 01:17:59;;;;;;;11.13;10.02;;;;;;;;;;4967051;28;20436;-73
2023/09/20 01:20:26;;;;;;;10.02;9.32;;;;;;;;;;4998838;28;20092;-71
2023/09/20 01:22:54;;;;;;;10.57;9.88;;;;;;;;;;5000515;28;20496;-72
2023/09/20 01:25:24;;;;;;;10.73;9.82;;;;;;;;;;4985609;28;20053;-73
2023/09/20 01:27:55;;;;;;;10.60;9.82;;;;;;;;;;4995516;28;20035;-74
2023/09/20 01:30:25;;;;;;;10.40;9.70;;;;;;;;;;4965856;28;20263;-73
2023/09/20 01:32:55;;;;;;;10.52;9.73;;;;;;;;;;4995439;28;20045;-72
2023/09/20 01:35:23;;;;;;;11.15;10.27;;;;;;;;;;4984849;28;20114;-73
2023/09/20 01:37:52;;;;;;;10.55;9.60;;;;;;;;;;4976517;28;20042;-73
2023/09/20 01:40:19;;;;;;;10.40;9.63;;;;;;;;;;4969813;28;20054;-72
2023/09/20 01:42:46;;;;;;;10.73;9.80;;;;;;;;;;4969139;28;20039;-72
2023/09/20 01:45:18;;;;;;;10.38;9.73;;;;;;;;;;4980470;28;20165;-72
2023/09/20 01:47:49;;;;;;;11.50;10.52;;;;;;;;;;4960700;28;20031;-73
2023/09/20 01:50:19;;;;;;;10.50;9.50;;;;;;;;;;4968590;28;20563;-72
2023/09/20 01:52:53;;;;;;;10.77;9.77;;;;;;;;;;4955145;28;20121;-72
2023/09/20 01:55:21;;;;;;;10.18;9.40;;;;;;;;;;4964106;28;20031;-72
2023/09/20 01:57:51;;;;;;;10.98;9.98;;;;;;;;;;4965390;28;20065;-73
2023/09/20 02:03:16;;;;;;;10.50;9.50;;;;;;;;;;4966480;28;20088;-73
2023/09/20 02:05:55;;;;;;;10.05;9.35;;;;;;;;;;4982931;28;20038;-73
2023/09/20 02:08:23;;;;;;;10.70;9.80;;;;;;;;;;4952169;28;20046;-72
2023/09/20 02:10:53;;;;;;;10.55;9.75;;;;;;;;;;4981118;28;20420;-72
2023/09/20 02:13:25;;;;;;;11.70;10.70;;;;;;;;;;4970483;28;20078;-71
2023/09/20 02:15:53;;;;;;;10.13;9.32;;;;;;;;;;4966613;28;20050;-71
2023/09/20 02:18:22;;;;;;;10.73;9.82;;;;;;;;;;4982903;28;20046;-71
2023/09/20 02:20:57;;;;;;;11.65;10.48;;;;;;;;;;4948000;28;20053;-71
2023/09/20 02:23:27;;;;;;;10.15;9.35;;;;;;;;;;4964216;28;21033;-71
2023/09/20 02:26:05;;;;;;;10.88;9.93;;;;;;;;;;4959622;28;20688;-72
2023/09/20 02:28:34;;;;;;;10.05;9.30;;;;;;;;;;4981644;28;20039;-72
2023/09/20 02:31:00;;;;;;;10.57;9.77;;;;;;;;;;4985194;28;20038;-72
2023/09/20 02:33:30;;;;;;;10.68;9.88;;;;;;;;;;4981181;28;20046;-73
2023/09/20 02:35:57;;;;;;;10.98;10.07;;;;;;;;;;4980716;28;20073;-72
2023/09/20 02:38:23;;;;;;;10.50;9.60;;;;;;;;;;4981619;28;20034;-72
2023/09/20 02:40:50;;;;;;;12.80;9.43;;;;;;;;;;4952389;28;20580;-71
2023/09/20 02:43:16;;;;;;;10.43;9.63;;;;;;;;;;4973623;28;20050;-71
2023/09/20 02:45:45;;;;;;;10.40;9.65;;;;;;;;;;4989241;28;20034;-72
2023/09/20 02:48:12;;;;;;;;;;;;;;;;;;4991091;28;20045;-72
2023/09/20 02:50:50;;;;;;;10.50;9.70;;;;;;;;;;4974944;28;20076;-73
2023/09/20 02:53:21;;;;;;;10.68;9.77;;;;;;;;;;4972701;28;20031;-72
2023/09/20 02:55:47;;;;;;;11.05;10.05;;;;;;;;;;4974213;28;20039;-73
2023/09/20 02:58:14;;;;;;;10.88;9.98;;;;;;;;;;4979932;28;20041;-73
2023/09/20 03:00:50;;;;;;;10.93;10.02;;;;;;;;;;4986970;28;20038;-71
2023/09/20 03:03:23;;;;;;;11.63;10.52;;;;;;;;;;4960471;28;20039;-71
2023/09/20 03:05:50;;;;;;;11.32;10.52;;;;;;;;;;4983178;28;20035;-72
2023/09/20 03:08:18;;;;;;;11.82;10.82;;;;;;;;;;4944287;28;20053;-72
2023/09/20 03:10:45;;;;;;;12.02;11.02;;;;;;;;;;4975527;28;20034;-71
2023/09/20 03:13:16;;;;;;;11.52;10.63;;;;;;;;;;4961880;28;20030;-71
2023/09/20 03:15:45;;;;;;;11.77;10.88;;;;;;;;;;4969512;28;20042;-71
2023/09/20 03:18:22;;;;;;;11.45;10.55;;;;;;;;;;4969761;28;20027;-72
2023/09/20 03:20:53;;;;;;;11.70;10.80;;;;;;;;;;4975954;28;20073;-72
2023/09/20 03:23:20;;;;;;;12.07;11.07;;;;;;;;;;4992522;28;20113;-72
2023/09/20 03:25:56;;;;;;;11.85;10.85;;;;;;;;;;4974911;28;20042;-73
2023/09/20 03:28:25;;;;;;;13.60;10.95;;;;;;;;;;4989971;28;20076;-71
2023/09/20 03:30:56;;;;;;;11.88;10.88;;;;;;;;;;4990927;28;20045;-73
2023/09/20 03:33:27;;;;;;;12.00;10.90;;;;;;;;;;4959799;28;20080;-72
2023/09/20 03:35:52;;;;;;;11.80;10.80;;;;;;;;;;4975355;28;20042;-73
2023/09/20 03:38:19;;;;;;;11.27;10.27;;;;;;;;;;4968991;28;20034;-70
2023/09/20 03:40:44;;;;;;;11.68;10.80;;;;;;;;;;4989057;28;20110;-72
2023/09/20 03:43:10;;;;;;;11.55;10.63;;;;;;;;;;4971530;28;20530;-71
2023/09/20 03:45:42;;;;;;;12.48;11.25;;;;;;;;;;4960468;28;20050;-73
2023/09/20 03:48:08;;;;;;;11.68;10.68;;;;;;;;;;4985533;28;20042;-72
2023/09/20 03:50:34;;;;;;;11.70;10.60;;;;;;;;;;4988689;28;20093;-70
2023/09/20 03:53:00;;;;;;;11.48;10.60;;;;;;;;;;5003014;28;20097;-73
2023/09/20 03:55:27;;;;;;;11.52;10.57;;;;;;;;;;4968850;28;20697;-73
2023/09/20 03:57:52;;;;;;;10.82;10.02;;;;;;;;;;4989088;28;20030;-72
2023/09/20 04:00:24;;;;;;;11.85;10.80;;;;;;;;;;4966281;28;20378;-72
2023/09/20 04:02:53;;;;;;;11.77;10.52;;;;;;;;;;4960395;28;20032;-73
2023/09/20 04:05:19;;;;;;;11.75;10.82;;;;;;;;;;4958834;28;20122;-74
2023/09/20 04:07:47;;;;;;;11.50;10.50;;;;;;;;;;4960384;28;20054;-73
2023/09/20 04:10:15;;;;;;;11.05;10.23;;;;;;;;;;4962539;28;20173;-73
2023/09/20 04:12:41;;;;;;;12.82;11.63;;;;;;;;;;4962588;28;20105;-72
2023/09/20 04:15:08;;;;;;;11.55;10.45;;;;;;;;;;4958242;28;20875;-71
2023/09/20 04:17:38;;;;;;;12.48;11.48;;;;;;;;;;4993801;28;20108;-72
2023/09/20 04:20:09;;;;;;;11.18;10.38;;;;;;;;;;4977363;28;20041;-71
2023/09/20 04:22:41;;;;;;;12.55;11.48;;;;;;;;;;4982621;28;20042;-72
2023/09/20 04:25:10;;;;;;;11.52;10.40;;;;;;;;;;4972668;28;20493;-72
2023/09/20 04:27:37;;;;;;;11.60;10.77;;;;;;;;;;4975684;28;20043;-71
2023/09/20 04:30:07;;;;;;;12.50;10.82;;;;;;;;;;4980664;28;20031;-73
2023/09/20 04:32:34;;;;;;;12.00;10.95;;;;;;;;;;4979187;28;20764;-73
2023/09/20 04:35:02;;;;;;;12.75;11.68;;;;;;;;;;4959031;28;20039;-72
2023/09/20 04:37:29;;;;;;;13.20;11.70;;;;;;;;;;4997424;28;20097;-72
2023/09/20 04:39:54;;;;;;;18.42;11.27;;;;;;;;;;4986799;28;20042;-71
2023/09/20 04:42:20;;;;;;;12.23;11.13;;;;;;;;;;4977245;28;20039;-73
2023/09/20 04:44:49;;;;;;;11.52;10.65;;;;;;;;;;4980719;28;20118;-73
2023/09/20 04:47:17;;;;;;;12.27;11.00;;;;;;;;;;4981013;28;20034;-73
2023/09/20 04:49:44;;;;;;;11.20;10.40;;;;;;;;;;4982554;28;20031;-73
2023/09/20 04:52:11;;;;;;;11.25;10.45;;;;;;;;;;4977854;28;20043;-72
2023/09/20 04:54:38;;;;;;;11.32;10.30;;;;;;;;;;4979701;28;20170;-73
2023/09/20 04:57:07;;;;;;;11.30;10.40;;;;;;;;;;4983404;28;20105;-73
2023/09/20 04:59:32;;;;;;;11.15;10.20;;;;;;;;;;4997190;28;20045;-73
2023/09/20 05:01:59;;;;;;;12.15;11.05;;;;;;;;;;4980878;28;20039;-73
2023/09/20 05:04:26;;;;;;;11.32;10.50;;;;;;;;;;4980080;28;20533;-72
2023/09/20 05:06:53;;;;;;;10.95;9.95;;;;;;;;;;4980885;28;20070;-73
2023/09/20 05:09:19;;;;;;;9.88;8.98;;;;;;;;;;4985319;28;20034;-72
2023/09/20 05:11:45;;;;;;;10.82;9.93;;;;;;;;;;4962940;28;20434;-72
2023/09/20 05:14:11;;;;;;;10.35;9.55;;;;;;;;;;4984129;28;20035;-73
2023/09/20 05:16:37;;;;;;;10.60;9.85;;;;;;;;;;4999203;28;20046;-72
2023/09/20 05:19:03;;;;;;;10.88;10.07;;;;;;;;;;4980968;28;20084;-72
2023/09/20 05:21:30;;;;;;;10.95;10.15;;;;;;;;;;4981639;28;20046;-74
2023/09/20 05:23:55;;;;;;;11.43;10.52;;;;;;;;;;4991461;28;20035;-72
2023/09/20 05:26:22;;;;;;;11.18;10.35;;;;;;;;;;4970359;28;20041;-73
2023/09/20 05:28:48;;;;;;;12.30;10.70;;;;;;;;;;4979305;28;20101;-73
2023/09/20 05:31:15;;;;;;;10.95;10.15;;;;;;;;;;4984188;28;20031;-71
2023/09/20 05:33:41;;;;;;;11.00;10.10;;;;;;;;;;4969914;28;20554;-73
2023/09/20 05:36:07;;;;;;;10.43;9.63;;;;;;;;;;4965904;28;20027;-72
2023/09/20 05:38:33;;;;;;;10.15;9.30;;;;;;;;;;4966599;28;20046;-72
2023/09/20 05:40:58;;;;;;;10.52;9.50;;;;;;;;;;4969798;28;20421;-74
2023/09/20 05:43:24;;;;;;;10.80;9.73;;;;;;;;;;4996133;28;20034;-71
2023/09/20 05:45:49;;;;;;;10.20;9.40;;;;;;;;;;4966006;28;20035;-73
2023/09/20 05:48:16;;;;;;;10.32;9.52;;;;;;;;;;4964324;28;20484;-71
2023/09/20 05:50:42;;;;;;;10.43;9.73;;;;;;;;;;4967447;28;20038;-73
2023/09/20 05:53:12;;;;;;;10.85;9.95;;;;;;;;;;4978263;28;20039;-71
2023/09/20 05:55:38;;;;;;;10.45;9.75;;;;;;;;;;4963351;28;20030;-74
2023/09/20 05:58:05;;;;;;;11.00;9.93;;;;;;;;;;4968172;28;20038;-72
2023/09/20 06:00:30;;;;;;;10.95;10.05;;;;;;;;;;4965224;28;20046;-71
2023/09/20 06:02:57;;;;;;;10.40;9.65;;;;;;;;;;4969706;28;20027;-74
2023/09/20 06:05:24;;;;;;;10.07;9.38;;;;;;;;;;4964645;28;20035;-73
2023/09/20 06:07:51;;;;;;;10.45;9.75;;;;;;;;;;4966424;28;20090;-73
2023/09/20 06:10:18;;;;;;;10.52;9.57;;;;;;;;;;4966816;28;20404;-73
2023/09/20 06:12:45;;;;;;;9.65;9.05;;;;;;;;;;4969299;28;20046;-73
2023/09/20 06:15:14;;;;;;;10.40;9.43;;;;;;;;;;4965293;28;20030;-73
2023/09/20 06:17:42;;;;;;;;;;;;;;;;;;4967609;28;20043;-73
2023/09/20 06:20:11;;;;;;;11.13;10.02;;;;;;;;;;4964926;28;20047;-71
2023/09/20 06:22:38;;;;;;;10.45;9.70;;;;;;;;;;4971352;28;20503;-73
2023/09/20 06:25:06;;;;;;;11.55;10.50;;;;;;;;;;4976859;28;20054;-72
2023/09/20 06:27:33;;;;;;;10.52;9.73;;;;;;;;;;4964745;28;20070;-73
2023/09/20 06:30:07;;;;;;;10.65;9.75;;;;;;;;;;4966462;28;20114;-72
2023/09/20 06:32:33;;;;;;;9.70;9.02;;;;;;;;;;4963182;28;20039;-73
2023/09/20 06:35:07;;;;;;;10.25;9.45;;;;;;;;;;4964603;28;20038;-71
2023/09/20 06:37:34;;;;;;;10.50;9.70;;;;;;;;;;4970290;28;20037;-71
2023/09/20 06:40:00;;;;;;;10.95;9.90;;;;;;;;;;4967335;28;20508;-71
2023/09/20 06:42:29;;;;;;;11.10;10.18;;;;;;;;;;4962925;28;20034;-72
2023/09/20 06:44:55;;;;;;;10.60;9.80;;;;;;;;;;4965153;28;20562;-73
2023/09/20 06:47:24;;;;;;;10.18;9.15;;;;;;;;;;4970271;28;20559;-73
2023/09/20 06:49:51;;;;;;;10.45;9.52;;;;;;;;;;4964167;28;20142;-73
2023/09/20 06:52:18;;;;;;;9.77;8.98;;;;;;;;;;4962007;28;20077;-73
2023/09/20 06:54:45;;;;;;;10.50;9.63;;;;;;;;;;4966558;28;20567;-73
2023/09/20 06:57:17;;;;;;;11.30;9.32;;;;;;;;;;4970563;28;20447;-74
2023/09/20 06:59:44;;;;;;;10.52;9.68;;;;;;;;;;4966668;28;20042;-72
2023/09/20 07:02:12;;;;;;;10.85;9.65;;;;;;;;;;4965650;28;20623;-73
2023/09/20 07:04:39;;;;;;;10.02;9.07;;;;;;;;;;4995275;28;20511;-73
2023/09/20 07:07:05;;;;;;;10.10;9.25;;;;;;;;;;4967434;28;20085;-72
2023/09/20 07:09:31;;;;;;;10.07;9.27;;;;;;;;;;4968456;28;20460;-71
2023/09/20 07:12:01;;;;;;;10.48;9.57;;;;;;;;;;4969017;28;20045;-74
2023/09/20 07:14:30;;;;;;;10.43;9.30;;;;;;;;;;4967746;28;20033;-74
2023/09/20 07:16:55;;;;;;;10.43;9.43;;;;;;;;;;4970333;28;20058;-74
2023/09/20 07:19:23;;;;;;;9.82;9.02;;;;;;;;;;4987022;28;20519;-73
2023/09/20 07:21:50;;;;;;;9.65;8.85;;;;;;;;;;4968344;28;20034;-73
2023/09/20 07:24:16;;;;;;;9.70;9.00;;;;;;;;;;4966362;28;20045;-72
2023/09/20 07:26:45;;;;;;;9.80;9.00;;;;;;;;;;4969468;28;20515;-74
2023/09/20 07:29:15;;;;;;;11.43;9.25;;;;;;;;;;4965380;28;21200;-74
2023/09/20 07:31:42;;;;;;;9.48;8.68;;;;;;;;;;4971594;28;20701;-73
2023/09/20 07:34:13;;;;;;;9.70;8.75;;;;;;;;;;4965265;28;20381;-74
2023/09/20 07:36:49;;;;;;;10.43;9.52;;;;;;;;;;4967275;28;20022;-72
2023/09/20 07:39:21;;;;;;;9.27;8.57;;;;;;;;;;4966720;28;20049;-74
2023/09/20 07:41:50;;;;;;;9.10;8.40;;;;;;;;;;4981189;28;20034;-71
2023/09/20 07:44:17;;;;;;;8.25;7.75;;;;;;;;;;4969060;28;20125;-73
2023/09/20 07:46:42;;;;;;;8.80;8.20;;;;;;;;;;4968269;28;20043;-73
2023/09/20 07:49:09;;;;;;;10.43;8.10;;;;;;;;;;4963435;28;20023;-74
2023/09/20 07:51:37;;;;;;;8.80;8.07;;;;;;;;;;4994742;28;20038;-74
2023/09/20 07:54:09;;;;;;;9.00;8.10;;;;;;;;;;4965101;28;20035;-74
2023/09/20 07:56:39;;;;;;;8.82;8.02;;;;;;;;;;4967076;28;20089;-74
2023/09/20 07:59:04;;;;;;;8.30;7.57;;;;;;;;;;4961116;28;20057;-74
2023/09/20 08:01:33;;;;;;;7.97;7.10;;;;;;;;;;4964667;28;20493;-73
2023/09/20 08:03:59;;;;;;;9.68;7.95;;;;;;;;;;4967876;28;20033;-74
2023/09/20 08:06:28;;;;;;;7.85;7.15;;;;;;;;;;4960735;28;20041;-75
2023/09/20 08:08:55;;;;;;;8.32;7.60;;;;;;;;;;4978334;28;20035;-74
2023/09/20 08:11:20;;;;;;;8.32;7.63;;;;;;;;;;4966716;28;20031;-74
2023/09/20 08:13:46;;;;;;;8.68;7.78;;;;;;;;;;4965323;28;20085;-74
2023/09/20 08:16:12;;;;;;;9.15;8.45;;;;;;;;;;4961867;28;20042;-73
2023/09/20 08:21:25;;;;;;;8.27;7.40;;;;;;;;;;4964959;28;20065;-74
2023/09/20 08:59:51;;;;;;;7.90;7.30;;;;;;;;;;4969129;28;20039;-73
2023/09/20 09:02:18;;;;;;;8.02;7.22;;;;;;;;;;4968108;28;20122;-74
2023/09/20 09:04:49;;;;;;;7.65;6.95;;;;;;;;;;4973887;28;20050;-73
2023/09/20 09:07:16;;;;;;;7.60;6.90;;;;;;;;;;4969252;28;20377;-74
2023/09/20 09:09:41;;;;;;;7.45;6.85;;;;;;;;;;4975182;28;20039;-74
2023/09/20 09:12:09;;;;;;;6.90;6.40;;;;;;;;;;4972913;28;20436;-71
2023/09/20 09:14:38;;;;;;;7.38;6.53;;;;;;;;;;4974760;28;20030;-74
2023/09/20 09:17:06;;;;;;;8.23;7.13;;;;;;;;;;4973385;28;20085;-73
2023/09/20 09:19:32;;;;;;;7.43;6.93;;;;;;;;;;4964060;28;20553;-74
2023/09/20 09:21:59;;;;;;;7.93;7.10;;;;;;;;;;4965120;28;20038;-74
2023/09/20 09:24:25;;;;;;;8.18;7.47;;;;;;;;;;4967261;28;20740;-74
2023/09/20 09:27:05;;;;;;;8.23;7.35;;;;;;;;;;4967156;28;20077;-74
2023/09/20 09:29:30;;;;;;;7.70;7.00;;;;;;;;;;4963111;28;20074;-73
2023/09/20 09:31:56;;;;;;;8.63;7.18;;;;;;;;;;4967010;28;20038;-71
2023/09/20 09:34:22;;;;;;;7.78;7.10;;;;;;;;;;4965016;28;20035;-74
2023/09/20 09:36:48;;;;;;;7.50;7.00;;;;;;;;;;4964258;28;20030;-73
2023/09/20 09:39:14;;;;;;;7.80;7.10;;;;;;;;;;4966101;28;20062;-72
2023/09/20 09:41:44;;;;;;;7.90;7.30;;;;;;;;;;4965949;28;20066;-72
2023/09/20 09:44:11;;;;;;;7.35;6.85;;;;;;;;;;4965521;28;20037;-73
2023/09/20 09:46:41;;;;;;;7.68;7.07;;;;;;;;;;4969120;28;20084;-74
2023/09/20 09:49:11;;;;;;;7.55;6.95;;;;;;;;;;4965215;28;20043;-74
2023/09/20 09:51:50;;;;;;;9.02;6.78;;;;;;;;;;4965144;28;20046;-74
2023/09/20 09:54:20;;;;;;;9.75;7.25;;;;;;;;;;4963336;28;20776;-71
2023/09/20 09:56:47;;;;;;;7.30;6.82;;;;;;;;;;4961639;28;20035;-73
2023/09/20 09:59:14;;;;;;;7.13;6.63;;;;;;;;;;4979463;28;20046;-74
2023/09/20 10:01:40;;;;;;;7.20;6.70;;;;;;;;;;4966264;28;20039;-71
2023/09/20 10:04:13;;;;;;;7.38;6.80;;;;;;;;;;4965133;28;20030;-73
2023/09/20 10:06:45;;;;;;;7.57;7.00;;;;;;;;;;4964337;28;20042;-73
2023/09/20 10:09:12;;;;;;;9.38;6.93;;;;;;;;;;4964166;28;20046;-73
2023/09/20 10:11:41;;;;;;;7.75;6.95;;;;;;;;;;4964678;28;20482;-73
2023/09/20 10:14:08;;;;;;;;;;;;;;;;;;4966043;28;20169;-73
2023/09/20 10:16:35;;;;;;;7.35;6.63;;;;;;;;;;4966057;28;19932;-74
2023/09/20 10:19:02;;;;;;;7.25;6.75;;;;;;;;;;4965778;28;20038;-73
2023/09/20 10:21:30;;;;;;;8.05;6.70;;;;;;;;;;4963911;28;20041;-74
2023/09/20 10:24:00;;;;;;;7.40;6.80;;;;;;;;;;4966967;28;20034;-73
2023/09/20 10:26:27;;;;;;;7.20;6.70;;;;;;;;;;4963941;28;20035;-73
2023/09/20 10:28:59;;;;;;;6.82;6.32;;;;;;;;;;4963044;28;22304;-74
2023/09/20 10:31:27;;;;;;;7.45;6.78;;;;;;;;;;4963477;28;20034;-74
2023/09/20 10:33:55;;;;;;;;;;;;;;;;;;4965111;28;20416;-74
2023/09/20 10:36:28;;;;;;;7.13;6.53;;;;;;;;;;4963743;28;19914;-73
2023/09/20 10:39:16;;;;;;;7.68;6.97;;;;;;;;;;4983529;28;20030;-74
2023/09/20 10:41:43;;;;;;;7.07;6.47;;;;;;;;;;4965555;28;20435;-74
2023/09/20 10:44:30;;;;;;;6.68;6.07;;;;;;;;;;4962639;28;20053;-73
2023/09/20 10:47:12;;;;;;;6.82;6.22;;;;;;;;;;4960605;28;20027;-71
2023/09/20 10:50:04;;;;;;;7.20;6.60;;;;;;;;;;4964978;28;20069;-71
2023/09/20 10:52:32;;;;;;;6.75;6.25;;;;;;;;;;4977907;28;20060;-72
2023/09/20 10:55:17;;;;;;;7.25;6.65;;;;;;;;;;4965397;28;20043;-73
2023/09/20 10:57:43;;;;;;;6.88;6.47;;;;;;;;;;4983415;28;20035;-74
2023/09/20 11:00:09;;;;;;;7.00;6.50;;;;;;;;;;4969126;28;20038;-73
2023/09/20 11:02:37;;;;;;;6.80;6.30;;;;;;;;;;4964732;28;20061;-73
2023/09/20 11:05:06;;;;;;;7.07;6.50;;;;;;;;;;4963267;28;20074;-71
2023/09/20 11:07:35;;;;;;;6.75;6.35;;;;;;;;;;4966246;28;20048;-73
2023/09/20 11:10:02;;;;;;;6.78;6.28;;;;;;;;;;4965878;28;20122;-74
2023/09/20 11:12:28;;;;;;;7.25;6.75;;;;;;;;;;4966087;28;20061;-74
2023/09/20 11:14:54;;;;;;;7.03;6.53;;;;;;;;;;4967250;28;20030;-74
2023/09/20 11:17:20;;;;;;;7.00;6.50;;;;;;;;;;4968194;28;20038;-74
2023/09/20 11:19:47;;;;;;;7.07;6.57;;;;;;;;;;4963445;28;20523;-75
2023/09/20 11:22:15;;;;;;;7.28;6.68;;;;;;;;;;4964889;28;20055;-71
2023/09/20 11:24:41;;;;;;;6.90;6.50;;;;;;;;;;4964659;28;20066;-74
2023/09/20 11:27:08;;;;;;;7.03;6.63;;;;;;;;;;4964018;28;20166;-75
2023/09/20 11:29:40;;;;;;;7.47;6.90;;;;;;;;;;4961549;28;20050;-74
2023/09/20 11:32:11;;;;;;;7.40;6.80;;;;;;;;;;4962723;28;20497;-73
2023/09/20 11:34:49;;;;;;;7.47;6.97;;;;;;;;;;4964581;28;20042;-74
2023/09/20 11:37:19;;;;;;;7.38;6.88;;;;;;;;;;4966525;28;20042;-73
2023/09/20 11:39:52;;;;;;;7.50;7.00;;;;;;;;;;4963260;28;20034;-73
2023/09/20 11:42:34;;;;;;;7.38;6.88;;;;;;;;;;4965233;28;20045;-74
2023/09/20 11:45:07;;;;;;;7.03;6.63;;;;;;;;;;4965190;28;20030;-72
2023/09/20 11:47:37;;;;;;;7.32;6.82;;;;;;;;;;4962086;28;20043;-74
2023/09/20 11:50:04;;;;;;;7.68;7.18;;;;;;;;;;4964526;28;20043;-73
2023/09/20 11:52:31;;;;;;;8.05;7.32;;;;;;;;;;4962849;28;20121;-74
2023/09/20 11:54:59;;;;;;;8.10;7.40;;;;;;;;;;4961192;28;20081;-74
2023/09/20 11:57:25;;;;;;;7.85;7.15;;;;;;;;;;4964213;28;20034;-74
2023/09/20 11:59:53;;;;;;;7.90;7.40;;;;;;;;;;4963435;28;20035;-74
2023/09/20 12:02:19;;;;;;;8.70;7.80;;;;;;;;;;4962536;28;20039;-74
2023/09/20 12:04:45;;;;;;;7.97;7.47;;;;;;;;;;4962823;28;20039;-73
2023/09/20 12:07:10;;;;;;;7.90;7.32;;;;;;;;;;4962296;28;20035;-75
2023/09/20 12:09:37;;;;;;;8.00;7.50;;;;;;;;;;4977245;28;20045;-74
2023/09/20 12:12:05;;;;;;;8.23;7.70;;;;;;;;;;4962423;28;20038;-74
2023/09/20 12:14:33;;;;;;;8.20;7.70;;;;;;;;;;4965213;28;20224;-74
2023/09/20 12:16:59;;;;;;;8.10;7.45;;;;;;;;;;4962702;28;20042;-72
2023/09/20 12:19:25;;;;;;;8.18;7.57;;;;;;;;;;4963994;28;20043;-72
2023/09/20 12:21:50;;;;;;;8.35;7.75;;;;;;;;;;4962720;28;20034;-74
2023/09/20 12:24:16;;;;;;;9.07;8.27;;;;;;;;;;4961724;28;20046;-74
2023/09/20 12:26:41;;;;;;;8.43;7.93;;;;;;;;;;4965453;28;20092;-75
2023/09/20 12:29:07;;;;;;;8.55;7.97;;;;;;;;;;4962611;28;20030;-72
2023/09/20 12:31:33;;;;;;;8.90;8.20;;;;;;;;;;4962260;28;20459;-74
2023/09/20 12:34:00;;;;;;;8.70;8.00;;;;;;;;;;4961393;28;20034;-74
2023/09/20 12:36:30;;;;;;;8.83;8.23;;;;;;;;;;4963931;28;20066;-72
2023/09/20 12:38:56;;;;;;;9.07;8.18;;;;;;;;;;4964970;28;20070;-72
2023/09/20 12:41:25;;;;;;;8.40;7.80;;;;;;;;;;4973889;28;20473;-73
2023/09/20 12:43:51;;;;;;;;;;;;;;;;;;4964095;28;20031;-74
2023/09/20 12:46:17;;;;;;;8.60;8.10;;;;;;;;;;4960123;28;20393;-74
2023/09/20 12:48:44;;;;;;;8.90;8.30;;;;;;;;;;4965411;28;20070;-72
2023/09/20 12:51:13;;;;;;;8.52;8.00;;;;;;;;;;4970985;28;20054;-73
2023/09/20 12:53:39;;;;;;;8.73;8.13;;;;;;;;;;4966672;28;20037;-74
2023/09/20 12:56:07;;;;;;;8.50;8.00;;;;;;;;;;4970886;28;20619;-70
2023/09/20 12:58:33;;;;;;;8.75;8.15;;;;;;;;;;4966953;28;20039;-74
2023/09/20 13:00:59;;;;;;;9.10;8.40;;;;;;;;;;4962595;28;20055;-73
2023/09/20 13:03:28;;;;;;;8.55;8.05;;;;;;;;;;4969155;28;20047;-74
2023/09/20 13:05:54;;;;;;;8.70;8.20;;;;;;;;;;4970459;28;20531;-72
2023/09/20 13:08:21;;;;;;;8.95;8.35;;;;;;;;;;4972706;28;20031;-73
2023/09/20 13:10:51;;;;;;;9.57;8.30;;;;;;;;;;4971150;28;20117;-74
2023/09/20 13:13:18;;;;;;;8.50;7.90;;;;;;;;;;4967625;28;20078;-71
2023/09/20 13:15:44;;;;;;;8.77;8.27;;;;;;;;;;4970918;28;20030;-72
2023/09/20 13:18:11;;;;;;;8.57;7.97;;;;;;;;;;4970407;28;20086;-74
2023/09/20 13:20:41;;;;;;;8.85;8.15;;;;;;;;;;4967200;28;20066;-74
2023/09/20 13:23:07;;;;;;;8.55;8.00;;;;;;;;;;4968300;28;20380;-71
2023/09/20 13:25:34;;;;;;;9.02;8.43;;;;;;;;;;4970948;28;20066;-72
2023/09/20 13:27:59;;;;;;;9.25;8.48;;;;;;;;;;4970285;28;20088;-74
2023/09/20 13:30:26;;;;;;;8.48;7.97;;;;;;;;;;4972229;28;20038;-73
2023/09/20 13:32:52;;;;;;;7.85;7.35;;;;;;;;;;4966311;28;20042;-72
2023/09/20 13:35:19;;;;;;;7.93;7.43;;;;;;;;;;4962345;28;20054;-72
2023/09/20 13:37:45;;;;;;;8.00;7.50;;;;;;;;;;4963169;28;20019;-70
2023/09/20 13:40:15;;;;;;;8.43;7.88;;;;;;;;;;4962852;28;20594;-74
2023/09/20 13:42:43;;;;;;;8.13;7.63;;;;;;;;;;4961490;28;20050;-73
2023/09/20 13:45:10;;;;;;;8.70;7.90;;;;;;;;;;4961296;28;20044;-73
2023/09/20 13:47:39;;;;;;;8.38;7.88;;;;;;;;;;4962708;28;20039;-73
2023/09/20 13:50:07;;;;;;;8.23;7.72;;;;;;;;;;4963492;28;20511;-73
2023/09/20 13:52:33;;;;;;;9.32;8.73;;;;;;;;;;4961608;28;20126;-72
2023/09/20 13:54:59;;;;;;;9.00;8.10;;;;;;;;;;4961370;28;20038;-72
2023/09/20 13:57:24;;;;;;;8.70;8.00;;;;;;;;;;4962112;28;20047;-73
2023/09/20 13:59:54;;;;;;;8.20;7.70;;;;;;;;;;4963525;28;20413;-69
2023/09/20 14:02:20;;;;;;;8.52;7.82;;;;;;;;;;4962091;28;20035;-72
2023/09/20 14:04:46;;;;;;;8.48;7.90;;;;;;;;;;4963905;28;20035;-72
2023/09/20 14:07:12;;;;;;;8.27;7.78;;;;;;;;;;4965769;28;20037;-70
2023/09/20 14:09:42;;;;;;;8.20;7.70;;;;;;;;;;4967635;28;20049;-74
2023/09/20 14:12:08;;;;;;;8.05;7.55;;;;;;;;;;4969591;28;20042;-71
2023/09/20 14:14:34;;;;;;;8.48;7.88;;;;;;;;;;4962619;28;20125;-74
2023/09/20 14:17:00;;;;;;;8.60;8.00;;;;;;;;;;4959455;28;20870;-74
2023/09/20 14:19:26;;;;;;;8.57;7.97;;;;;;;;;;4960982;28;20039;-72
2023/09/20 14:21:51;;;;;;;9.02;8.23;;;;;;;;;;4961100;28;20043;-72
2023/09/20 14:24:17;;;;;;;8.85;8.20;;;;;;;;;;4962020;28;20039;-72
2023/09/20 14:26:43;;;;;;;8.50;7.90;;;;;;;;;;4962307;28;20043;-73
2023/09/20 14:29:10;;;;;;;8.52;7.75;;;;;;;;;;4973770;28;20403;-71
2023/09/20 14:31:39;;;;;;;8.55;8.05;;;;;;;;;;4963609;28;20043;-71
2023/09/20 14:34:10;;;;;;;8.57;7.97;;;;;;;;;;4964584;28;20035;-72
2023/09/20 14:36:38;;;;;;;8.50;7.90;;;;;;;;;;4961495;28;20038;-70
2023/09/20 14:39:04;;;;;;;8.45;7.95;;;;;;;;;;4964062;28;20381;-72
2023/09/20 14:41:30;;;;;;;8.82;8.23;;;;;;;;;;4962540;28;20053;-72
2023/09/20 14:43:56;;;;;;;8.57;7.97;;;;;;;;;;4979165;28;20034;-71
2023/09/20 14:46:25;;;;;;;8.32;7.82;;;;;;;;;;4993796;28;20026;-73
2023/09/20 14:48:53;;;;;;;8.60;8.00;;;;;;;;;;4964578;28;20207;-74
2023/09/20 14:51:19;;;;;;;9.02;8.23;;;;;;;;;;4977243;28;20026;-74
2023/09/20 14:53:48;;;;;;;9.02;8.52;;;;;;;;;;4963892;28;20046;-73
2023/09/20 14:56:37;;;;;;;8.63;8.13;;;;;;;;;;4987428;28;20538;-74
2023/09/20 14:59:03;;;;;;;9.00;8.40;;;;;;;;;;4964851;28;20656;-74
2023/09/20 15:01:29;;;;;;;8.88;8.20;;;;;;;;;;4964706;28;20093;-73
2023/09/20 15:03:54;;;;;;;9.15;8.50;;;;;;;;;;4961441;28;20034;-73
2023/09/20 15:06:22;;;;;;;9.15;8.50;;;;;;;;;;4966008;28;20114;-75
2023/09/20 15:08:49;;;;;;;9.20;8.60;;;;;;;;;;4957421;28;20495;-73
2023/09/20 15:11:15;;;;;;;9.32;8.48;;;;;;;;;;4974984;28;20081;-72
2023/09/20 15:13:41;;;;;;;9.43;8.52;;;;;;;;;;4982086;28;20050;-72
2023/09/20 15:16:16;;;;;;;9.23;8.52;;;;;;;;;;4966359;28;20027;-74
2023/09/20 15:18:48;;;;;;;8.30;7.80;;;;;;;;;;4962665;28;20046;-71
2023/09/20 15:21:15;;;;;;;10.43;7.60;;;;;;;;;;4977401;28;20038;-73